Time;durP1;ratioP1;P1;durP2;ratioP2;P2;SDS_P1;SDS_P2;PMS_P1;PMS_P2;Temp;Humidity;BMP_temperature;BMP_pressure;BME280_temperature;BME280_humidity;BME280_pressure;Samples;Min_cycle;Max_cycle;Signal;HPM_P1;HPM_P2
2023/04/02 00:00:22;;;;;;;2.47;0.20;;;;;;;11.49;51.39;101092.41;4998502;28;20681;-85
2023/04/02 00:03:00;;;;;;;1.48;0.25;;;;;;;11.51;52.79;101095.91;4955853;28;20141;-86
2023/04/02 00:05:50;;;;;;;0.10;0.10;;;;;;;11.53;53.28;101089.94;5002124;28;20080;-85
2023/04/02 00:08:39;;;;;;;2.35;0.30;;;;;;;11.30;49.15;101085.78;4987017;28;20081;-86
2023/04/02 00:11:09;;;;;;;0.43;0.30;;;;;;;11.27;51.23;101075.28;4994864;28;20062;-83
2023/04/02 00:13:41;;;;;;;1.38;0.52;;;;;;;11.39;50.80;101090.38;4989030;28;20518;-82
2023/04/02 00:16:14;;;;;;;5.50;0.32;;;;;;;11.53;50.93;101078.72;4990594;28;20714;-82
2023/04/02 00:18:47;;;;;;;2.25;0.30;;;;;;;11.54;48.85;101096.00;4986354;28;20053;-85
2023/04/02 00:21:17;;;;;;;;;;;;;;;11.47;46.94;101094.06;4990190;28;20042;-83
2023/04/02 00:23:47;;;;;;;1.58;0.82;;;;;;;11.50;49.78;101092.47;4990039;28;20083;-83
2023/04/02 00:26:25;;;;;;;4.68;0.40;;;;;;;11.61;49.53;101099.66;4991257;28;20101;-88
2023/04/02 00:28:54;;;;;;;0.90;0.40;;;;;;;11.65;49.73;101101.53;5002173;28;20049;-86
2023/04/02 00:31:23;;;;;;;2.53;0.30;;;;;;;11.63;49.52;101111.84;4996859;28;20074;-84
2023/04/02 00:33:51;;;;;;;0.40;0.20;;;;;;;11.65;48.94;101101.53;4997449;28;20072;-87
2023/04/02 00:36:22;;;;;;;2.00;0.40;;;;;;;11.63;50.24;101098.00;4989857;28;20055;-86
2023/04/02 00:38:53;;;;;;;1.50;0.50;;;;;;;11.70;49.29;101103.44;4994770;28;20618;-86
2023/04/02 00:41:28;;;;;;;2.30;0.43;;;;;;;11.75;50.29;101116.53;4999303;28;20050;-86
2023/04/02 00:43:59;;;;;;;1.58;0.38;;;;;;;11.77;49.30;101113.97;4985976;28;20034;-87
2023/04/02 00:46:34;;;;;;;0.40;0.30;;;;;;;11.73;50.06;101105.25;4988339;28;20046;-86
2023/04/02 00:49:09;;;;;;;0.45;0.13;;;;;;;11.61;49.38;101105.72;4993166;28;20141;-85
2023/04/02 00:51:43;;;;;;;1.35;0.28;;;;;;;11.52;49.92;101102.84;5001855;28;20068;-85
2023/04/02 00:54:15;;;;;;;1.92;0.30;;;;;;;11.45;49.44;101101.81;4992095;28;20042;-86
2023/04/02 00:56:46;;;;;;;1.35;0.35;;;;;;;11.33;50.21;101104.00;4993613;28;20046;-84
2023/04/02 00:59:24;;;;;;;1.50;0.35;;;;;;;11.23;51.04;101097.63;4990979;28;20054;-87
2023/04/02 01:02:00;;;;;;;1.13;0.57;;;;;;;11.18;51.53;101096.63;4985521;28;20095;-84
2023/04/02 01:04:33;;;;;;;2.97;0.43;;;;;;;11.24;51.90;101090.75;4996647;28;20049;-85
2023/04/02 01:07:08;;;;;;;1.58;0.32;;;;;;;11.26;51.49;101089.09;5006573;28;20054;-85
2023/04/02 01:09:58;;;;;;;2.15;0.45;;;;;;;11.19;51.69;101084.53;4998355;28;20038;-87
2023/04/02 01:12:40;;;;;;;2.70;0.38;;;;;;;11.13;51.83;101097.28;4994008;28;20078;-84
2023/04/02 01:15:14;;;;;;;2.67;0.75;;;;;;;11.10;53.22;101104.13;4994663;28;20327;-81
2023/04/02 01:18:17;;;;;;;1.30;0.40;;;;;;;11.12;53.13;101106.78;4999382;28;20050;-83
2023/04/02 01:21:27;;;;;;;2.30;0.40;;;;;;;11.02;53.36;101100.41;4991574;28;20390;-80
2023/04/02 01:24:02;;;;;;;2.55;0.45;;;;;;;10.97;53.71;101099.38;4971063;28;20065;-84
2023/04/02 01:26:56;;;;;;;3.10;0.40;;;;;;;10.93;53.18;101109.59;4994631;28;20105;-84
2023/04/02 01:29:29;;;;;;;1.98;0.32;;;;;;;10.87;54.06;101111.13;4991523;28;20107;-86
2023/04/02 01:32:02;;;;;;;3.88;1.02;;;;;;;10.71;52.91;101105.38;4996844;28;20120;-90
2023/04/02 01:34:32;;;;;;;3.90;0.50;;;;;;;10.63;53.19;101110.31;4996994;28;20060;-83
2023/04/02 01:37:23;;;;;;;3.47;0.52;;;;;;;10.47;53.04;101103.72;4992490;28;20055;-83
2023/04/02 01:40:07;;;;;;;5.25;0.82;;;;;;;10.32;54.46;101108.31;4992793;28;20085;-81
2023/04/02 01:42:41;;;;;;;1.77;0.38;;;;;;;10.29;55.70;101110.81;4990852;28;20046;-84
2023/04/02 01:45:14;;;;;;;2.05;0.55;;;;;;;10.18;54.06;101100.91;4996675;28;20050;-86
2023/04/02 01:47:44;;;;;;;4.70;1.10;;;;;;;10.11;55.47;101104.09;4999178;28;20057;-86
2023/04/02 01:50:24;;;;;;;2.70;0.47;;;;;;;10.06;56.11;101115.97;5001081;28;20042;-89
2023/04/02 01:52:56;;;;;;;8.68;1.30;;;;;;;10.02;55.63;101107.22;4994795;28;20475;-83
2023/04/02 01:55:31;;;;;;;3.70;0.70;;;;;;;9.89;53.63;101111.88;4995597;28;20046;-84
2023/04/02 01:58:02;;;;;;;2.95;0.80;;;;;;;9.76;54.42;101118.28;4989515;28;20054;-83
2023/04/02 02:00:35;;;;;;;3.42;1.00;;;;;;;9.59;55.69;101112.44;4985054;28;20054;-81
2023/04/02 02:03:07;;;;;;;2.38;0.50;;;;;;;9.55;56.75;101115.72;4988632;28;20066;-80
2023/04/02 02:05:43;;;;;;;2.80;0.55;;;;;;;9.41;58.30;101107.44;4991044;28;20050;-77
2023/04/02 02:08:26;;;;;;;4.18;0.77;;;;;;;9.35;59.54;101104.63;4983382;28;20047;-76
2023/04/02 02:10:55;;;;;;;1.13;0.47;;;;;;;9.26;59.05;101112.88;4989680;28;20055;-78
2023/04/02 02:13:24;;;;;;;1.40;0.30;;;;;;;9.15;60.82;101102.09;4981471;28;20051;-80
2023/04/02 02:15:57;;;;;;;1.50;0.40;;;;;;;9.05;60.91;101101.66;4981655;28;20046;-78
2023/04/02 02:18:26;;;;;;;2.45;0.40;;;;;;;8.92;60.76;101116.66;4990224;28;20054;-78
2023/04/02 02:20:58;;;;;;;0.35;0.25;;;;;;;8.69;61.15;101110.50;4985999;28;20106;-78
2023/04/02 02:23:29;;;;;;;1.98;0.35;;;;;;;8.61;60.82;101111.88;4988949;28;20147;-77
2023/04/02 02:25:59;;;;;;;0.47;0.38;;;;;;;8.54;62.34;101110.75;4988861;28;20050;-78
2023/04/02 02:28:31;;;;;;;0.95;0.68;;;;;;;8.47;61.78;101106.13;4989414;28;20062;-76
2023/04/02 02:31:04;;;;;;;5.63;0.70;;;;;;;8.45;62.15;101118.06;4988252;28;20062;-76
2023/04/02 02:33:37;;;;;;;1.63;0.40;;;;;;;8.38;62.74;101124.63;4990348;28;20062;-78
2023/04/02 02:36:11;;;;;;;1.65;0.50;;;;;;;8.38;63.07;101131.47;4984953;28;20521;-77
2023/04/02 02:38:56;;;;;;;0.68;0.30;;;;;;;8.37;64.33;101137.44;4984641;28;20051;-76
2023/04/02 02:41:32;;;;;;;2.45;0.50;;;;;;;8.37;63.75;101129.72;4990366;28;20057;-77
2023/04/02 02:44:06;;;;;;;1.27;0.28;;;;;;;8.38;64.16;101136.63;4990181;28;20047;-77
2023/04/02 02:46:38;;;;;;;4.50;0.70;;;;;;;8.36;65.48;101136.56;4989702;28;20050;-77
2023/04/02 02:49:08;;;;;;;0.47;0.32;;;;;;;8.31;65.72;101130.31;4979414;28;20054;-78
2023/04/02 02:51:45;;;;;;;1.98;0.35;;;;;;;8.32;65.80;101137.25;4981161;28;20605;-78
2023/04/02 02:54:15;;;;;;;1.38;0.57;;;;;;;8.32;65.26;101139.81;4980951;28;20129;-80
2023/04/02 02:56:48;;;;;;;1.15;0.28;;;;;;;8.29;65.20;101146.53;4988014;28;20735;-80
2023/04/02 02:59:17;;;;;;;1.23;0.55;;;;;;;8.22;65.03;101137.63;4986033;28;20057;-81
2023/04/02 03:01:48;;;;;;;0.57;0.43;;;;;;;8.17;65.30;101136.56;4980058;28;20058;-81
2023/04/02 03:04:22;;;;;;;1.90;0.70;;;;;;;8.08;66.04;101131.84;4991518;28;20066;-83
2023/04/02 03:06:53;;;;;;;0.85;0.55;;;;;;;8.03;65.59;101146.22;4984577;28;20129;-81
2023/04/02 03:09:30;;;;;;;3.38;0.43;;;;;;;7.92;65.80;101143.16;4986612;28;20124;-85
2023/04/02 03:12:07;;;;;;;0.15;0.10;;;;;;;7.81;67.07;101148.63;4994339;28;20130;-84
2023/04/02 03:14:42;;;;;;;2.80;0.50;;;;;;;7.71;68.12;101150.75;4984761;28;20488;-82
2023/04/02 03:17:19;;;;;;;1.52;0.32;;;;;;;7.60;68.21;101148.50;4991249;28;20061;-84
2023/04/02 03:19:52;;;;;;;0.40;0.40;;;;;;;7.54;70.80;101151.66;4986026;28;20516;-81
2023/04/02 03:22:26;;;;;;;1.25;0.20;;;;;;;7.44;70.43;101150.31;4986571;28;20050;-78
2023/04/02 03:25:02;;;;;;;3.97;0.40;;;;;;;7.34;70.34;101151.56;4981084;28;20046;-81
2023/04/02 03:27:36;;;;;;;3.83;0.32;;;;;;;7.29;70.80;101144.44;4986260;28;20055;-83
2023/04/02 03:30:24;;;;;;;2.17;0.40;;;;;;;7.23;71.65;101155.31;4979781;28;20046;-83
2023/04/02 03:33:00;;;;;;;1.70;0.57;;;;;;;7.15;73.15;101151.50;4990319;28;20057;-81
2023/04/02 03:35:37;;;;;;;1.85;0.30;;;;;;;7.13;73.53;101160.81;4983870;28;20488;-83
2023/04/02 03:38:13;;;;;;;5.75;0.43;;;;;;;7.07;73.81;101152.78;4984307;28;20062;-84
2023/04/02 03:40:45;;;;;;;0.30;0.28;;;;;;;7.03;74.43;101145.72;4988692;28;20054;-85
2023/04/02 03:43:21;;;;;;;1.65;0.50;;;;;;;7.00;74.46;101146.44;4992226;28;20053;-83
2023/04/02 03:45:52;;;;;;;3.83;1.02;;;;;;;7.01;75.49;101148.22;5002023;28;20647;-87
2023/04/02 03:48:28;;;;;;;2.00;0.75;;;;;;;7.05;75.67;101149.25;4991532;28;20062;-85
2023/04/02 03:51:01;;;;;;;3.40;0.43;;;;;;;7.10;76.25;101170.94;4996655;28;20042;-88
2023/04/02 03:53:31;;;;;;;0.98;0.20;;;;;;;7.08;81.88;101178.59;4993968;28;20051;-82
2023/04/02 03:56:01;;;;;;;1.45;0.40;;;;;;;7.04;84.45;101183.53;4981567;28;20154;-83
2023/04/02 03:58:37;;;;;;;2.47;0.88;;;;;;;6.99;85.71;101208.13;4992438;28;20050;-84
2023/04/02 04:01:16;;;;;;;3.25;0.50;;;;;;;6.92;88.46;101218.09;4995848;28;20062;-87
2023/04/02 04:03:51;;;;;;;1.33;1.00;;;;;;;6.79;89.86;101210.56;4996191;28;20622;-82
2023/04/02 04:06:26;;;;;;;0.70;0.40;;;;;;;6.77;90.71;101219.88;4990348;28;20186;-89
2023/04/02 04:08:58;;;;;;;0.45;0.40;;;;;;;6.71;89.56;101219.53;4987159;28;20042;-84
2023/04/02 04:11:32;;;;;;;6.15;1.13;;;;;;;6.55;89.42;101219.53;4987812;28;20057;-81
2023/04/02 04:14:06;;;;;;;0.10;0.10;;;;;;;6.50;91.33;101230.50;4992040;28;20074;-85
2023/04/02 04:16:45;;;;;;;0.73;0.40;;;;;;;6.38;92.56;101222.09;4983571;28;20055;-81
2023/04/02 04:19:18;;;;;;;0.57;0.20;;;;;;;6.24;92.07;101203.38;4988031;28;20077;-82
2023/04/02 04:21:47;;;;;;;1.75;0.25;;;;;;;6.07;94.47;101206.72;4986714;28;20622;-82
2023/04/02 04:24:20;;;;;;;0.10;0.10;;;;;;;6.00;95.70;101209.72;4992133;28;20050;-85
2023/04/02 04:26:53;;;;;;;;;;;;;;;5.94;96.20;101199.09;4979959;28;20096;-81
2023/04/02 04:29:36;;;;;;;0.00;0.00;;;;;;;5.90;97.67;101195.47;4991305;28;19962;-82
2023/04/02 04:32:20;;;;;;;0.22;0.20;;;;;;;5.78;99.12;101197.38;4985038;28;20055;-82
2023/04/02 04:34:52;;;;;;;1.10;0.20;;;;;;;5.77;99.45;101190.44;4979452;28;20050;-81
2023/04/02 04:37:27;;;;;;;0.10;0.10;;;;;;;5.77;100.00;101190.44;4986639;28;20142;-81
2023/04/02 04:39:59;;;;;;;0.98;0.10;;;;;;;5.77;100.00;101180.19;4984470;28;20046;-84
2023/04/02 04:42:33;;;;;;;0.20;0.20;;;;;;;5.71;100.00;101173.03;4991649;28;20046;-78
2023/04/02 04:45:08;;;;;;;0.08;0.08;;;;;;;5.75;100.00;101174.06;4992620;28;20063;-80
2023/04/02 04:47:40;;;;;;;0.10;0.05;;;;;;;5.78;100.00;101171.69;4990541;28;20697;-77
2023/04/02 04:50:17;;;;;;;2.63;0.20;;;;;;;5.76;100.00;101169.03;4992479;28;20049;-83
2023/04/02 04:52:45;;;;;;;0.88;0.30;;;;;;;5.76;100.00;101173.28;4997700;28;20039;-84
2023/04/02 04:55:30;;;;;;;1.67;0.40;;;;;;;5.79;100.00;101169.19;4986622;28;20050;-83
2023/04/02 04:58:03;;;;;;;1.02;0.45;;;;;;;5.84;100.00;101175.47;4997695;28;20491;-83
2023/04/02 05:00:41;;;;;;;1.85;0.30;;;;;;;5.86;100.00;101157.56;4993358;28;20050;-80
2023/04/02 05:03:18;;;;;;;1.33;0.32;;;;;;;5.86;100.00;101148.22;4992745;28;20145;-83
2023/04/02 05:05:49;;;;;;;0.05;0.00;;;;;;;5.93;100.00;101166.50;4983745;28;20058;-83
2023/04/02 05:08:23;;;;;;;1.13;0.30;;;;;;;5.82;100.00;101158.22;4985370;28;20051;-82
2023/04/02 05:10:56;;;;;;;0.65;0.10;;;;;;;5.79;100.00;101166.63;4992852;28;20058;-82
2023/04/02 05:13:35;;;;;;;0.75;0.15;;;;;;;5.78;100.00;101158.84;4991328;28;20133;-83
2023/04/02 05:16:12;;;;;;;0.47;0.38;;;;;;;5.76;100.00;101163.00;4990994;28;20558;-85
2023/04/02 05:18:44;;;;;;;0.55;0.30;;;;;;;5.72;100.00;101169.66;4993670;28;20054;-84
2023/04/02 05:21:21;;;;;;;0.28;0.25;;;;;;;5.72;100.00;101164.50;4986683;28;20169;-82
2023/04/02 05:23:52;;;;;;;1.45;0.20;;;;;;;5.72;100.00;101161.06;4994393;28;20519;-81
2023/04/02 05:26:25;;;;;;;1.10;0.30;;;;;;;5.72;100.00;101161.06;4990086;28;20404;-83
2023/04/02 05:29:00;;;;;;;0.20;0.10;;;;;;;5.70;100.00;101166.09;4986507;28;20050;-77
2023/04/02 05:31:38;;;;;;;0.30;0.10;;;;;;;5.69;100.00;101161.78;4986788;28;20046;-78
2023/04/02 05:34:07;;;;;;;0.52;0.25;;;;;;;5.65;100.00;101160.72;4991037;28;20042;-78
2023/04/02 05:36:44;;;;;;;0.35;0.13;;;;;;;5.69;100.00;101171.19;4990361;28;20054;-77
2023/04/02 05:39:13;;;;;;;0.70;0.20;;;;;;;5.68;100.00;101162.59;4985940;28;20042;-77
2023/04/02 05:41:45;;;;;;;0.80;0.30;;;;;;;5.66;100.00;101159.94;4986438;28;20050;-78
2023/04/02 05:44:20;;;;;;;0.03;0.00;;;;;;;5.63;100.00;101146.91;4984179;28;20042;-78
2023/04/02 05:46:52;;;;;;;0.25;0.13;;;;;;;5.61;100.00;101151.09;4990568;28;20065;-79
2023/04/02 05:49:25;;;;;;;1.55;0.45;;;;;;;5.47;100.00;101136.59;4989279;28;20476;-81
2023/04/02 05:51:57;;;;;;;;;;;;;;;5.50;100.00;101141.91;4980476;28;20050;-79
2023/04/02 05:54:29;;;;;;;1.55;0.43;;;;;;;5.43;100.00;101135.56;4986209;28;19973;-80
2023/04/02 05:57:03;;;;;;;0.40;0.30;;;;;;;5.41;100.00;101120.88;4987304;28;20053;-78
2023/04/02 05:59:38;;;;;;;0.88;0.55;;;;;;;5.43;100.00;101119.28;4981114;28;20054;-80
2023/04/02 06:02:17;;;;;;;0.63;0.30;;;;;;;5.47;100.00;101121.19;4986364;28;20050;-81
2023/04/02 06:04:51;;;;;;;0.08;0.08;;;;;;;5.48;100.00;101119.53;4975427;28;20125;-83
2023/04/02 06:07:24;;;;;;;1.38;0.30;;;;;;;5.48;100.00;101110.16;4991108;28;20066;-83
2023/04/02 06:09:57;;;;;;;0.22;0.20;;;;;;;5.45;100.00;101099.69;4986918;28;20054;-82
2023/04/02 06:12:32;;;;;;;0.55;0.45;;;;;;;5.46;100.00;101092.09;4988129;28;20116;-83
2023/04/02 06:15:01;;;;;;;0.38;0.20;;;;;;;5.49;100.00;101093.06;4984985;28;20113;-82
2023/04/02 06:17:30;;;;;;;0.17;0.05;;;;;;;5.50;100.00;101089.69;4971725;28;20042;-82
2023/04/02 06:20:00;;;;;;;0.30;0.20;;;;;;;5.55;100.00;101088.28;4980880;28;20057;-84
2023/04/02 06:22:36;;;;;;;0.30;0.17;;;;;;;5.56;100.00;101095.16;4973203;28;20046;-80
2023/04/02 06:25:18;;;;;;;0.40;0.10;;;;;;;5.51;100.00;101089.78;4987671;28;20121;-81
2023/04/02 06:27:49;;;;;;;0.40;0.22;;;;;;;5.41;100.00;101080.69;4985522;28;20048;-80
2023/04/02 06:30:22;;;;;;;0.25;0.10;;;;;;;5.37;100.00;101088.13;4988354;28;20054;-81
2023/04/02 06:32:50;;;;;;;0.10;0.10;;;;;;;5.40;100.00;101096.00;4990275;28;20315;-82
2023/04/02 06:35:19;;;;;;;0.28;0.10;;;;;;;5.39;100.00;101094.25;4988861;28;20118;-82
2023/04/02 06:37:51;;;;;;;0.63;0.43;;;;;;;5.39;100.00;101094.25;4990214;28;20057;-80
2023/04/02 06:40:35;;;;;;;1.60;0.55;;;;;;;5.38;100.00;101082.19;4987111;28;20049;-81
2023/04/02 06:43:08;;;;;;;0.55;0.43;;;;;;;5.37;100.00;101078.75;4986191;28;20043;-79
2023/04/02 06:45:42;;;;;;;0.98;0.30;;;;;;;5.37;100.00;101075.31;4986021;28;20546;-79
2023/04/02 06:48:16;;;;;;;2.10;0.22;;;;;;;5.33;100.00;101081.94;4986311;28;20068;-80
2023/04/02 06:50:49;;;;;;;2.08;0.30;;;;;;;5.32;100.00;101087.88;4984121;28;20110;-80
2023/04/02 06:53:26;;;;;;;0.32;0.25;;;;;;;5.34;100.00;101080.28;4985720;28;20058;-81
2023/04/02 06:55:59;;;;;;;0.60;0.20;;;;;;;5.34;100.00;101085.41;4981062;28;20096;-81
2023/04/02 06:58:28;;;;;;;0.20;0.10;;;;;;;5.36;100.00;101079.56;4993562;28;20050;-82
2023/04/02 07:00:57;;;;;;;0.30;0.17;;;;;;;5.44;100.00;101080.84;4991112;28;20042;-81
2023/04/02 07:03:27;;;;;;;0.22;0.10;;;;;;;5.51;100.00;101071.81;4989417;28;20105;-81
2023/04/02 07:05:56;;;;;;;0.70;0.30;;;;;;;5.57;100.00;101064.44;4984531;28;20050;-82
2023/04/02 07:08:27;;;;;;;0.35;0.17;;;;;;;5.61;100.00;101065.47;4989600;28;20061;-81
2023/04/02 07:10:56;;;;;;;0.15;0.10;;;;;;;5.65;100.00;101065.72;4980673;28;20050;-81
2023/04/02 07:13:25;;;;;;;0.55;0.30;;;;;;;5.72;100.00;101053.22;4989332;28;20492;-81
2023/04/02 07:15:55;;;;;;;0.80;0.30;;;;;;;5.70;100.00;101050.56;4989003;28;20049;-81
2023/04/02 07:18:27;;;;;;;0.75;0.52;;;;;;;5.71;100.00;101051.47;4976052;28;20447;-81
2023/04/02 07:20:56;;;;;;;3.00;0.35;;;;;;;5.67;100.00;101056.44;4984680;28;20058;-81
2023/04/02 07:23:26;;;;;;;1.02;0.40;;;;;;;5.66;100.00;101053.81;4989819;28;20050;-81
2023/04/02 07:25:57;;;;;;;0.40;0.20;;;;;;;5.59;100.00;101032.06;4990165;28;20087;-81
2023/04/02 07:28:26;;;;;;;0.25;0.10;;;;;;;5.69;100.00;101047.94;4987660;28;20091;-81
2023/04/02 07:30:58;;;;;;;0.22;0.10;;;;;;;5.69;100.00;101048.81;4986795;28;20150;-82
2023/04/02 07:33:29;;;;;;;0.85;0.30;;;;;;;5.71;100.00;101051.47;4979223;28;20055;-81
2023/04/02 07:35:58;;;;;;;0.98;0.20;;;;;;;5.71;100.00;101046.34;4986474;28;20488;-82
2023/04/02 07:38:29;;;;;;;1.45;0.25;;;;;;;5.70;100.00;101044.56;4984549;28;20050;-82
2023/04/02 07:40:57;;;;;;;3.83;0.30;;;;;;;5.73;100.00;101049.88;4987610;28;20404;-80
2023/04/02 07:43:26;;;;;;;1.15;0.20;;;;;;;5.78;100.00;101058.72;4977407;28;20116;-80
2023/04/02 07:45:54;;;;;;;0.25;0.15;;;;;;;5.81;100.00;101058.88;4984864;28;20479;-80
2023/04/02 07:48:23;;;;;;;0.30;0.20;;;;;;;5.81;100.00;101048.59;4985517;28;20054;-79
2023/04/02 07:50:51;;;;;;;0.32;0.15;;;;;;;5.82;100.00;101050.38;4984926;28;20058;-81
2023/04/02 07:53:30;;;;;;;0.30;0.20;;;;;;;5.83;100.00;101047.00;4988052;28;20492;-80
2023/04/02 07:56:00;;;;;;;0.60;0.30;;;;;;;5.84;100.00;101048.75;4987571;28;20054;-79
2023/04/02 07:58:29;;;;;;;0.40;0.15;;;;;;;5.84;100.00;101048.75;4989194;28;20053;-79
2023/04/02 08:00:57;;;;;;;2.70;0.30;;;;;;;5.86;100.00;101042.00;4986505;28;20104;-80
2023/04/02 08:03:26;;;;;;;0.10;0.10;;;;;;;5.91;100.00;101044.81;4985929;28;20053;-80
2023/04/02 08:05:56;;;;;;;0.20;0.17;;;;;;;5.93;100.00;101033.81;4987623;28;20050;-79
2023/04/02 08:08:26;;;;;;;2.67;0.20;;;;;;;5.89;100.00;101031.91;4989222;28;20085;-79
2023/04/02 08:10:56;;;;;;;1.08;0.15;;;;;;;5.85;100.00;101035.13;4986564;28;20054;-81
2023/04/02 08:13:25;;;;;;;0.05;0.00;;;;;;;5.86;100.00;101027.50;4975418;28;20061;-81
2023/04/02 08:15:53;;;;;;;0.30;0.15;;;;;;;5.91;100.00;101025.19;4989692;28;20062;-80
2023/04/02 08:18:23;;;;;;;1.73;0.15;;;;;;;5.91;100.00;101030.31;4992160;28;20046;-80
2023/04/02 08:20:53;;;;;;;0.10;0.10;;;;;;;5.96;100.00;101033.16;4990062;28;20102;-80
2023/04/02 08:23:22;;;;;;;0.70;0.40;;;;;;;5.98;100.00;101037.56;4993553;28;20492;-81
2023/04/02 08:25:52;;;;;;;1.85;0.50;;;;;;;5.98;100.00;101032.44;4988890;28;20459;-81
2023/04/02 08:28:23;;;;;;;0.55;0.43;;;;;;;5.98;100.00;101026.38;4989603;28;20106;-79
2023/04/02 08:30:51;;;;;;;0.77;0.40;;;;;;;5.90;100.00;101019.94;4989737;28;20051;-78
2023/04/02 08:33:20;;;;;;;0.63;0.43;;;;;;;5.97;100.00;101022.06;4990764;28;20050;-79
2023/04/02 08:35:50;;;;;;;0.88;0.50;;;;;;;5.94;100.00;101017.66;4989995;28;20058;-78
2023/04/02 08:38:20;;;;;;;0.85;0.32;;;;;;;5.90;100.00;100997.72;4991872;28;20066;-79
2023/04/02 08:40:51;;;;;;;2.67;0.50;;;;;;;5.85;100.00;100994.03;4993917;28;20514;-77
2023/04/02 08:43:38;;;;;;;2.33;0.80;;;;;;;5.82;100.00;100994.75;4987597;28;20043;-78
2023/04/02 08:46:12;;;;;;;1.55;0.38;;;;;;;5.82;100.00;100999.91;4987093;28;20136;-77
2023/04/02 08:48:44;;;;;;;0.77;0.20;;;;;;;5.78;100.00;100990.25;4988859;28;20050;-78
2023/04/02 08:51:24;;;;;;;0.20;0.20;;;;;;;5.63;100.00;100982.63;4986680;28;20051;-79
2023/04/02 08:53:55;;;;;;;0.20;0.20;;;;;;;5.73;100.00;100993.41;4992811;28;20050;-78
2023/04/02 08:56:31;;;;;;;0.90;0.20;;;;;;;5.72;100.00;100983.91;4989644;28;20047;-77
2023/04/02 08:59:08;;;;;;;0.68;0.20;;;;;;;5.71;100.00;100989.88;4991558;28;20038;-79
2023/04/02 09:01:47;;;;;;;0.10;0.10;;;;;;;5.67;100.00;100983.69;4993591;28;20488;-79
2023/04/02 09:04:18;;;;;;;0.43;0.20;;;;;;;5.65;100.00;100980.13;4991308;28;20082;-78
2023/04/02 09:06:47;;;;;;;2.83;0.30;;;;;;;5.64;100.00;100980.97;4991743;28;20113;-78
2023/04/02 09:09:17;;;;;;;0.90;0.20;;;;;;;5.64;100.00;100978.38;4995293;28;20046;-78
2023/04/02 09:11:53;;;;;;;0.57;0.45;;;;;;;5.63;100.00;100981.75;4989169;28;20046;-79
2023/04/02 09:14:30;;;;;;;0.60;0.43;;;;;;;5.55;100.00;100973.66;4988959;28;20404;-77
2023/04/02 09:17:02;;;;;;;1.23;0.20;;;;;;;5.54;100.00;100976.13;4988207;28;20053;-78
2023/04/02 09:19:34;;;;;;;;;;;;;;;5.40;100.00;100977.94;4985511;28;20053;-78
2023/04/02 09:22:09;;;;;;;0.43;0.20;;;;;;;5.38;100.00;100971.84;4990056;28;19925;-77
2023/04/02 09:24:38;;;;;;;0.13;0.00;;;;;;;5.36;100.00;100976.00;4993416;28;20057;-76
2023/04/02 09:27:18;;;;;;;0.25;0.20;;;;;;;5.32;100.00;100969.84;4990463;28;20404;-76
2023/04/02 09:29:52;;;;;;;0.08;0.03;;;;;;;5.34;100.00;100969.94;4984221;28;20046;-77
2023/04/02 09:32:46;;;;;;;0.30;0.13;;;;;;;5.30;100.00;100970.56;4987857;28;20054;-76
2023/04/02 09:35:17;;;;;;;0.52;0.15;;;;;;;5.33;100.00;100963.03;4980827;28;20352;-76
2023/04/02 09:37:46;;;;;;;0.00;0.00;;;;;;;5.33;100.00;100965.59;4993346;28;20161;-76
2023/04/02 09:40:25;;;;;;;1.17;0.17;;;;;;;5.35;100.00;100959.75;4988461;28;20434;-76
2023/04/02 09:43:06;;;;;;;0.40;0.20;;;;;;;5.33;100.00;100960.47;4990663;28;20144;-77
2023/04/02 09:45:36;;;;;;;0.28;0.10;;;;;;;5.29;100.00;100949.16;4989503;28;20065;-77
2023/04/02 09:48:23;;;;;;;0.00;0.00;;;;;;;5.32;100.00;100953.56;4987211;28;20081;-78
2023/04/02 09:51:03;;;;;;;0.40;0.15;;;;;;;5.30;100.00;100939.78;4987413;28;20058;-77
2023/04/02 09:53:35;;;;;;;0.00;0.00;;;;;;;5.32;100.00;100945.88;4990141;28;20520;-77
2023/04/02 09:56:13;;;;;;;0.45;0.00;;;;;;;5.28;100.00;100944.81;4994379;28;20053;-77
2023/04/02 09:58:43;;;;;;;0.25;0.10;;;;;;;5.24;100.00;100937.75;4992486;28;20047;-78
2023/04/02 10:01:29;;;;;;;0.10;0.10;;;;;;;5.23;100.00;100939.44;4991454;28;20058;-77
2023/04/02 10:03:58;;;;;;;0.80;0.17;;;;;;;5.25;100.00;100931.84;4989285;28;20074;-77
2023/04/02 10:06:28;;;;;;;0.47;0.20;;;;;;;5.23;100.00;100936.88;4990505;28;20081;-76
2023/04/02 10:08:57;;;;;;;0.32;0.10;;;;;;;5.22;100.00;100942.81;4996591;28;20500;-78
2023/04/02 10:11:29;;;;;;;0.32;0.10;;;;;;;5.18;100.00;100935.75;4990502;28;20145;-78
2023/04/02 10:14:00;;;;;;;0.22;0.15;;;;;;;5.12;100.00;100935.41;4988653;28;20042;-77
2023/04/02 10:16:34;;;;;;;0.10;0.10;;;;;;;5.07;100.00;100925.72;4982638;28;20054;-78
2023/04/02 10:19:07;;;;;;;0.20;0.20;;;;;;;4.99;100.00;100923.63;4988719;28;20121;-78
2023/04/02 10:21:38;;;;;;;0.30;0.13;;;;;;;4.91;100.00;100926.56;4991404;28;20117;-78
2023/04/02 10:24:13;;;;;;;0.28;0.10;;;;;;;4.87;100.00;100922.06;4990575;28;20065;-78
2023/04/02 10:26:51;;;;;;;0.45;0.30;;;;;;;4.88;100.00;100924.72;4986641;28;20054;-77
2023/04/02 10:29:36;;;;;;;0.45;0.00;;;;;;;4.87;100.00;100922.94;4990168;28;20616;-78
2023/04/02 10:32:12;;;;;;;0.98;0.20;;;;;;;4.86;100.00;100923.75;4990928;28;20646;-79
2023/04/02 10:34:48;;;;;;;2.45;0.30;;;;;;;4.83;100.00;100927.03;4989337;28;20051;-78
2023/04/02 10:37:45;;;;;;;2.47;0.30;;;;;;;4.75;100.00;100907.75;4985815;28;20179;-78
2023/04/02 10:40:20;;;;;;;3.15;0.10;;;;;;;4.71;100.00;100910.94;4992530;28;20072;-80
2023/04/02 10:42:59;;;;;;;0.20;0.10;;;;;;;4.65;100.00;100910.63;4984587;28;20066;-77
2023/04/02 10:45:41;;;;;;;1.40;0.22;;;;;;;4.62;100.00;100908.75;4988943;28;20408;-77
2023/04/02 10:48:18;;;;;;;0.05;0.05;;;;;;;4.68;100.00;100905.66;4987030;28;20085;-79
2023/04/02 10:50:56;;;;;;;0.85;0.22;;;;;;;4.67;100.00;100900.44;4989039;28;20046;-80
2023/04/02 10:53:33;;;;;;;0.13;0.13;;;;;;;4.66;100.00;100901.25;4986278;28;20097;-79
2023/04/02 10:56:07;;;;;;;0.00;0.00;;;;;;;4.60;100.00;100891.53;4991881;28;20047;-77
2023/04/02 10:58:43;;;;;;;0.63;0.10;;;;;;;4.59;100.00;100892.34;4985838;28;20061;-78
2023/04/02 11:01:18;;;;;;;0.20;0.20;;;;;;;4.56;100.00;100885.38;4988655;28;20050;-78
2023/04/02 11:03:52;;;;;;;0.35;0.22;;;;;;;4.61;100.00;100893.31;4986677;28;20124;-79
2023/04/02 11:06:25;;;;;;;0.65;0.00;;;;;;;4.62;100.00;100889.94;4990293;28;20054;-78
2023/04/02 11:09:02;;;;;;;;;;;;;;;4.64;100.00;100883.22;4984852;28;20050;-78
2023/04/02 11:11:36;;;;;;;1.02;0.30;;;;;;;4.59;100.00;100890.66;4982846;28;19925;-79
2023/04/02 11:14:11;;;;;;;0.20;0.10;;;;;;;4.53;100.00;100877.47;4982196;28;20089;-79
2023/04/02 11:16:40;;;;;;;0.10;0.10;;;;;;;4.58;100.00;100885.44;4989454;28;20663;-79
2023/04/02 11:19:27;;;;;;;0.08;0.08;;;;;;;4.59;100.00;100880.41;4988313;28;20042;-79
2023/04/02 11:21:58;;;;;;;0.20;0.10;;;;;;;4.61;100.00;100875.38;4989126;28;20078;-78
2023/04/02 11:24:38;;;;;;;0.38;0.20;;;;;;;4.62;100.00;100882.25;4983365;28;20065;-80
2023/04/02 11:27:14;;;;;;;2.08;0.20;;;;;;;4.64;100.00;100880.66;4965152;28;20047;-78
2023/04/02 11:29:45;;;;;;;0.30;0.17;;;;;;;4.69;100.00;100886.03;4968306;28;20046;-78
2023/04/02 11:32:34;;;;;;;0.30;0.10;;;;;;;4.74;100.00;100877.81;4967857;28;20050;-79
2023/04/02 11:35:34;;;;;;;4.28;0.73;;;;;;;4.75;100.00;100877.00;4966281;28;20043;-78
2023/04/02 11:38:43;;;;;;;0.75;0.20;;;;;;;4.74;100.00;100880.38;4968240;28;20046;-80
2023/04/02 11:41:11;;;;;;;1.35;0.20;;;;;;;4.73;100.00;100873.47;4965728;28;20114;-79
2023/04/02 11:44:00;;;;;;;0.65;0.13;;;;;;;4.67;100.00;100857.75;4962856;28;20058;-79
2023/04/02 11:46:50;;;;;;;3.83;0.35;;;;;;;4.69;100.00;100866.41;4968036;28;20424;-78
2023/04/02 11:49:40;;;;;;;0.08;0.00;;;;;;;4.67;100.00;100862.88;4962379;28;20063;-79
2023/04/02 11:52:24;;;;;;;0.65;0.17;;;;;;;4.69;100.00;100868.09;4967680;28;20059;-78
2023/04/02 11:55:16;;;;;;;0.98;0.13;;;;;;;4.73;100.00;100867.47;4970026;28;20061;-78
2023/04/02 11:58:06;;;;;;;0.10;0.05;;;;;;;4.75;100.00;100861.63;4968299;28;20054;-77
2023/04/02 12:01:17;;;;;;;1.65;0.30;;;;;;;4.75;100.00;100859.06;4964477;28;20507;-77
2023/04/02 12:04:02;;;;;;;0.38;0.28;;;;;;;4.78;100.00;100861.78;4960410;28;20521;-78